PWSweather.com
Personal Weather Stations
Station Observations
THAIWX
Pa Daet, Chiang MaiTH 50100

Pa DaetChiang MaiTH 50100

Lat: 18.766158, Lon: 98.97553

Elevation: 1007

Station Type: LaCrosse WS2315

http://www.ThaiWx.yolasite.com/

High Low Average
Temperature 88.5°F31.4°C 73.4°F23.0°C 78.7°F25.9°C
Dew Point 78.1°F25.6°C 72.7°F22.6°C 75.1°F23.9°C
Winds 3.4 mph 5.5 kmh Calm Calm Calm SSECalm SSE
Wind Gusts 3.4 mph5.5 kmh -- --
Humidity 99% 68% 89%
Pressure 29.88 in1011.9 mb 29.74 in1007.1 mb -
Precipitation 0.12 in3.0 mm - -
Hour Temp Dew Point Humidity Winds Wind Gusts Pressure Precip Precip Rate Daily Precip Total
12:01 AM 74.1°F23.4°C 73.2°F22.9°C 97% Calm Calm 0.4 mph0.6 kmh 29.88 in1011.9 mb 0.08 in2.0 mm 4.80 in121.9 mm 0.08 in2.0 mm
12:05 AM 74.1°F23.4°C 73.2°F22.9°C 97% Calm Calm -- 29.88 in1011.9 mb 0.08 in2.0 mm 0.00 in0.0 mm 0.08 in2.0 mm
12:09 AM 74.1°F23.4°C 73.2°F22.9°C 97% Calm Calm -- 29.88 in1011.9 mb 0.08 in2.0 mm 0.00 in0.0 mm 0.08 in2.0 mm
12:16 AM 74.1°F23.4°C 73.2°F22.9°C 97% Calm Calm -- 29.88 in1011.9 mb 0.08 in2.0 mm 0.00 in0.0 mm 0.08 in2.0 mm
12:20 AM 74.1°F23.4°C 73.2°F22.9°C 97% Calm Calm -- 29.88 in1011.9 mb 0.08 in2.0 mm 0.00 in0.0 mm 0.08 in2.0 mm
12:26 AM 73.9°F23.3°C 73.0°F22.8°C 97% Calm Calm -- 29.88 in1011.9 mb 0.08 in2.0 mm 0.00 in0.0 mm 0.08 in2.0 mm
12:31 AM 73.9°F23.3°C 73.0°F22.8°C 97% Calm Calm -- 29.87 in1011.5 mb 0.06 in1.5 mm 0.00 in0.0 mm 0.08 in2.0 mm
12:37 AM 73.9°F23.3°C 73.0°F22.8°C 97% Calm Calm -- 29.87 in1011.5 mb 0.06 in1.5 mm 0.00 in0.0 mm 0.02 in0.5 mm
12:41 AM 73.9°F23.3°C 73.0°F22.8°C 97% Calm Calm -- 29.87 in1011.5 mb 0.06 in1.5 mm 0.00 in0.0 mm 0.04 in1.0 mm
12:46 AM 73.9°F23.3°C 73.0°F22.8°C 97% 0.4 mph SSE0.6 kmh SSE 0.4 mph0.6 kmh 29.87 in1011.5 mb 0.06 in1.5 mm 0.00 in0.0 mm 0.04 in1.0 mm
12:52 AM 73.8°F23.2°C 72.8°F22.7°C 97% 0.7 mph SSE1.1 kmh SSE 0.7 mph1.1 kmh 29.86 in1011.2 mb 0.06 in1.5 mm 0.00 in0.0 mm 0.04 in1.0 mm
12:56 AM 73.8°F23.2°C 72.8°F22.7°C 97% 0.4 mph SSW0.6 kmh SSW 0.7 mph1.1 kmh 29.86 in1011.2 mb 0.04 in1.0 mm 0.00 in0.0 mm 0.04 in1.0 mm
01:01 AM 73.8°F23.2°C 72.8°F22.7°C 97% Calm Calm 0.7 mph1.1 kmh 29.86 in1011.2 mb 0.04 in1.0 mm 0.00 in0.0 mm 0.04 in1.0 mm
01:07 AM 73.8°F23.2°C 72.8°F22.7°C 97% Calm Calm 0.4 mph0.6 kmh 29.86 in1011.2 mb 0.06 in1.5 mm 0.20 in5.1 mm 0.06 in1.5 mm
01:11 AM 73.8°F23.2°C 72.8°F22.7°C 97% Calm Calm -- 29.86 in1011.2 mb 0.06 in1.5 mm 0.00 in0.0 mm 0.06 in1.5 mm
01:18 AM 73.8°F23.2°C 72.8°F22.7°C 97% Calm Calm -- 29.86 in1011.2 mb 0.06 in1.5 mm 0.00 in0.0 mm 0.06 in1.5 mm
01:22 AM 73.6°F23.1°C 72.7°F22.6°C 97% Calm Calm -- 29.85 in1010.8 mb 0.06 in1.5 mm 0.00 in0.0 mm 0.06 in1.5 mm
01:26 AM 73.6°F23.1°C 72.7°F22.6°C 97% Calm Calm -- 29.85 in1010.8 mb 0.06 in1.5 mm 0.00 in0.0 mm 0.06 in1.5 mm
01:33 AM 73.8°F23.2°C 72.8°F22.7°C 97% Calm Calm -- 29.85 in1010.8 mb 0.04 in1.0 mm 0.00 in0.0 mm 0.06 in1.5 mm
01:37 AM 73.6°F23.1°C 72.7°F22.6°C 97% Calm Calm -- 29.85 in1010.8 mb 0.04 in1.0 mm 0.00 in0.0 mm 0.06 in1.5 mm
01:41 AM 73.8°F23.2°C 72.8°F22.7°C 97% Calm Calm -- 29.85 in1010.8 mb 0.02 in0.5 mm 0.00 in0.0 mm 0.06 in1.5 mm
01:48 AM 73.6°F23.1°C 72.7°F22.6°C 97% Calm Calm -- 29.85 in1010.8 mb 0.02 in0.5 mm 0.00 in0.0 mm 0.06 in1.5 mm
01:54 AM 73.6°F23.1°C 73.0°F22.8°C 98% Calm Calm -- 29.84 in1010.5 mb 0.02 in0.5 mm 0.00 in0.0 mm 0.06 in1.5 mm
02:01 AM 73.6°F23.1°C 73.0°F22.8°C 98% Calm Calm -- 29.84 in1010.5 mb 0.02 in0.5 mm 0.00 in0.0 mm 0.06 in1.5 mm
02:05 AM 73.6°F23.1°C 73.0°F22.8°C 98% Calm Calm -- 29.84 in1010.5 mb 0.02 in0.5 mm 0.00 in0.0 mm 0.06 in1.5 mm
02:11 AM 73.6°F23.1°C 73.0°F22.8°C 98% Calm Calm -- 29.84 in1010.5 mb 0.02 in0.5 mm 0.00 in0.0 mm 0.08 in2.0 mm
02:16 AM 73.6°F23.1°C 73.0°F22.8°C 98% Calm Calm -- 29.85 in1010.8 mb 0.02 in0.5 mm 0.00 in0.0 mm 0.08 in2.0 mm
02:20 AM 73.6°F23.1°C 73.0°F22.8°C 98% Calm Calm -- 29.84 in1010.5 mb 0.02 in0.5 mm 0.00 in0.0 mm 0.08 in2.0 mm
02:26 AM 73.6°F23.1°C 73.0°F22.8°C 98% Calm Calm -- 29.84 in1010.5 mb 0.02 in0.5 mm 0.00 in0.0 mm 0.08 in2.0 mm
02:31 AM 73.6°F23.1°C 73.0°F22.8°C 98% Calm Calm -- 29.84 in1010.5 mb 0.02 in0.5 mm 0.00 in0.0 mm 0.08 in2.0 mm
02:37 AM 73.6°F23.1°C 73.0°F22.8°C 98% Calm Calm -- 29.84 in1010.5 mb 0.02 in0.5 mm 0.00 in0.0 mm 0.08 in2.0 mm
02:41 AM 73.6°F23.1°C 73.0°F22.8°C 98% Calm Calm -- 29.84 in1010.5 mb 0.02 in0.5 mm 0.00 in0.0 mm 0.08 in2.0 mm
02:46 AM 73.6°F23.1°C 73.0°F22.8°C 98% Calm Calm -- 29.83 in1010.2 mb 0.02 in0.5 mm 0.00 in0.0 mm 0.08 in2.0 mm
02:52 AM 73.6°F23.1°C 73.0°F22.8°C 98% Calm Calm -- 29.83 in1010.2 mb 0.02 in0.5 mm 0.00 in0.0 mm 0.08 in2.0 mm
02:56 AM 73.6°F23.1°C 73.0°F22.8°C 98% Calm Calm -- 29.83 in1010.2 mb 0.04 in1.0 mm 0.30 in7.6 mm 0.08 in2.0 mm
03:03 AM 73.6°F23.1°C 73.0°F22.8°C 98% Calm Calm -- 29.83 in1010.2 mb 0.02 in0.5 mm 0.00 in0.0 mm 0.10 in2.5 mm
03:07 AM 73.6°F23.1°C 73.0°F22.8°C 98% Calm Calm -- 29.83 in1010.2 mb 0.02 in0.5 mm 0.00 in0.0 mm 0.10 in2.5 mm
03:11 AM 73.6°F23.1°C 73.0°F22.8°C 98% Calm Calm -- 29.83 in1010.2 mb 0.02 in0.5 mm 0.00 in0.0 mm 0.10 in2.5 mm
03:18 AM 73.6°F23.1°C 73.0°F22.8°C 98% Calm Calm -- 29.83 in1010.2 mb 0.02 in0.5 mm 0.00 in0.0 mm 0.10 in2.5 mm
03:22 AM 73.6°F23.1°C 73.0°F22.8°C 98% Calm Calm -- 29.83 in1010.2 mb 0.02 in0.5 mm 0.00 in0.0 mm 0.10 in2.5 mm
03:26 AM 73.6°F23.1°C 73.0°F22.8°C 98% Calm Calm -- 29.82 in1009.8 mb 0.02 in0.5 mm 0.00 in0.0 mm 0.10 in2.5 mm
03:33 AM 73.6°F23.1°C 73.0°F22.8°C 98% Calm Calm -- 29.83 in1010.2 mb 0.02 in0.5 mm 0.00 in0.0 mm 0.10 in2.5 mm
03:37 AM 73.6°F23.1°C 73.0°F22.8°C 98% Calm Calm -- 29.82 in1009.8 mb 0.02 in0.5 mm 0.00 in0.0 mm 0.10 in2.5 mm
03:41 AM 73.6°F23.1°C 73.0°F22.8°C 98% Calm Calm -- 29.82 in1009.8 mb 0.02 in0.5 mm 0.00 in0.0 mm 0.10 in2.5 mm
03:48 AM 73.4°F23.0°C 72.8°F22.7°C 98% Calm Calm -- 29.82 in1009.8 mb 0.02 in0.5 mm 0.00 in0.0 mm 0.10 in2.5 mm
03:52 AM 73.4°F23.0°C 72.8°F22.7°C 98% Calm Calm -- 29.82 in1009.8 mb 0.02 in0.5 mm 0.00 in0.0 mm 0.10 in2.5 mm
03:56 AM 73.4°F23.0°C 72.8°F22.7°C 98% Calm Calm -- 29.82 in1009.8 mb 0.00 in0.0 mm 0.00 in0.0 mm 0.10 in2.5 mm
04:03 AM 73.4°F23.0°C 72.8°F22.7°C 98% Calm Calm -- 29.82 in1009.8 mb 0.00 in0.0 mm 0.00 in0.0 mm 0.10 in2.5 mm
04:09 AM 73.6°F23.1°C 73.0°F22.8°C 98% Calm Calm -- 29.82 in1009.8 mb 0.00 in0.0 mm 0.00 in0.0 mm 0.10 in2.5 mm
04:16 AM 73.6°F23.1°C 73.0°F22.8°C 98% Calm Calm -- 29.82 in1009.8 mb 0.00 in0.0 mm 0.00 in0.0 mm 0.10 in2.5 mm
04:20 AM 73.6°F23.1°C 73.0°F22.8°C 98% Calm Calm -- 29.82 in1009.8 mb 0.00 in0.0 mm 0.00 in0.0 mm 0.10 in2.5 mm
04:24 AM 73.6°F23.1°C 73.0°F22.8°C 98% Calm Calm -- 29.82 in1009.8 mb 0.00 in0.0 mm 0.00 in0.0 mm 0.10 in2.5 mm
04:31 AM 73.6°F23.1°C 73.0°F22.8°C 98% Calm Calm -- 29.82 in1009.8 mb 0.00 in0.0 mm 0.00 in0.0 mm 0.10 in2.5 mm
04:35 AM 73.6°F23.1°C 73.0°F22.8°C 98% Calm Calm -- 29.82 in1009.8 mb 0.00 in0.0 mm 0.00 in0.0 mm 0.10 in2.5 mm
04:39 AM 73.6°F23.1°C 73.0°F22.8°C 98% Calm Calm -- 29.82 in1009.8 mb 0.00 in0.0 mm 0.00 in0.0 mm 0.10 in2.5 mm
04:46 AM 73.6°F23.1°C 73.0°F22.8°C 98% Calm Calm -- 29.82 in1009.8 mb 0.00 in0.0 mm 0.00 in0.0 mm 0.10 in2.5 mm
04:50 AM 73.6°F23.1°C 73.0°F22.8°C 98% Calm Calm -- 29.82 in1009.8 mb 0.02 in0.5 mm 0.30 in7.6 mm 0.12 in3.0 mm
04:56 AM 73.6°F23.1°C 73.0°F22.8°C 98% Calm Calm -- 29.82 in1009.8 mb 0.02 in0.5 mm 0.00 in0.0 mm 0.12 in3.0 mm
05:01 AM 73.4°F23.0°C 72.8°F22.7°C 98% Calm Calm -- 29.82 in1009.8 mb 0.02 in0.5 mm 0.00 in0.0 mm 0.12 in3.0 mm
05:05 AM 73.6°F23.1°C 73.0°F22.8°C 98% Calm Calm -- 29.82 in1009.8 mb 0.02 in0.5 mm 0.00 in0.0 mm 0.12 in3.0 mm
05:11 AM 73.6°F23.1°C 73.0°F22.8°C 98% Calm Calm -- 29.82 in1009.8 mb 0.02 in0.5 mm 0.00 in0.0 mm 0.12 in3.0 mm
05:16 AM 73.6°F23.1°C 73.0°F22.8°C 98% Calm Calm -- 29.82 in1009.8 mb 0.02 in0.5 mm 0.00 in0.0 mm 0.12 in3.0 mm
05:20 AM 73.6°F23.1°C 73.0°F22.8°C 98% Calm Calm -- 29.82 in1009.8 mb 0.02 in0.5 mm 0.00 in0.0 mm 0.12 in3.0 mm
05:26 AM 73.6°F23.1°C 73.0°F22.8°C 98% Calm Calm -- 29.82 in1009.8 mb 0.02 in0.5 mm 0.00 in0.0 mm 0.12 in3.0 mm
05:31 AM 73.6°F23.1°C 73.0°F22.8°C 98% Calm Calm -- 29.82 in1009.8 mb 0.02 in0.5 mm 0.00 in0.0 mm 0.12 in3.0 mm
05:37 AM 73.6°F23.1°C 73.0°F22.8°C 98% Calm Calm -- 29.82 in1009.8 mb 0.02 in0.5 mm 0.00 in0.0 mm 0.12 in3.0 mm
05:42 AM 73.6°F23.1°C 73.0°F22.8°C 98% Calm Calm -- 29.82 in1009.8 mb 0.02 in0.5 mm 0.00 in0.0 mm 0.12 in3.0 mm
05:46 AM 73.6°F23.1°C 73.0°F22.8°C 98% Calm Calm -- 29.82 in1009.8 mb 0.02 in0.5 mm 0.00 in0.0 mm 0.12 in3.0 mm
05:52 AM 73.6°F23.1°C 73.0°F22.8°C 98% Calm Calm -- 29.82 in1009.8 mb 0.00 in0.0 mm 0.00 in0.0 mm 0.12 in3.0 mm
05:56 AM 73.6°F23.1°C 73.0°F22.8°C 98% Calm Calm -- 29.82 in1009.8 mb 0.00 in0.0 mm 0.00 in0.0 mm 0.12 in3.0 mm
06:03 AM 73.8°F23.2°C 73.1°F22.8°C 98% Calm Calm -- 29.82 in1009.8 mb 0.00 in0.0 mm 0.00 in0.0 mm 0.12 in3.0 mm
06:07 AM 73.8°F23.2°C 73.1°F22.8°C 98% Calm Calm -- 29.82 in1009.8 mb 0.00 in0.0 mm 0.00 in0.0 mm 0.12 in3.0 mm
06:14 AM 73.8°F23.2°C 73.1°F22.8°C 98% Calm Calm -- 29.82 in1009.8 mb 0.00 in0.0 mm 0.00 in0.0 mm 0.12 in3.0 mm
06:18 AM 73.8°F23.2°C 73.1°F22.8°C 98% Calm Calm -- 29.83 in1010.2 mb 0.00 in0.0 mm 0.00 in0.0 mm 0.12 in3.0 mm
06:22 AM 73.8°F23.2°C 73.5°F23.1°C 99% Calm Calm -- 29.83 in1010.2 mb 0.00 in0.0 mm 0.00 in0.0 mm 0.12 in3.0 mm
06:29 AM 73.8°F23.2°C 73.1°F22.8°C 98% Calm Calm -- 29.83 in1010.2 mb 0.00 in0.0 mm 0.00 in0.0 mm 0.12 in3.0 mm
06:33 AM 73.8°F23.2°C 73.1°F22.8°C 98% Calm Calm -- 29.83 in1010.2 mb 0.00 in0.0 mm 0.00 in0.0 mm 0.12 in3.0 mm
06:39 AM 73.8°F23.2°C 73.1°F22.8°C 98% Calm Calm -- 29.84 in1010.5 mb 0.00 in0.0 mm 0.00 in0.0 mm 0.12 in3.0 mm
06:44 AM 73.9°F23.3°C 73.3°F22.9°C 98% Calm Calm -- 29.84 in1010.5 mb 0.00 in0.0 mm 0.00 in0.0 mm 0.12 in3.0 mm
06:48 AM 73.9°F23.3°C 73.3°F22.9°C 98% Calm Calm -- 29.84 in1010.5 mb 0.00 in0.0 mm 0.00 in0.0 mm 0.12 in3.0 mm
06:54 AM 73.9°F23.3°C 73.3°F22.9°C 98% Calm Calm -- 29.85 in1010.8 mb 0.00 in0.0 mm 0.00 in0.0 mm 0.12 in3.0 mm
06:59 AM 73.9°F23.3°C 73.6°F23.1°C 99% Calm Calm -- 29.85 in1010.8 mb 0.00 in0.0 mm 0.00 in0.0 mm 0.12 in3.0 mm
07:03 AM 73.9°F23.3°C 73.6°F23.1°C 99% Calm Calm -- 29.85 in1010.8 mb 0.00 in0.0 mm 0.00 in0.0 mm 0.12 in3.0 mm
07:09 AM 73.9°F23.3°C 73.6°F23.1°C 99% Calm Calm -- 29.85 in1010.8 mb 0.00 in0.0 mm 0.00 in0.0 mm 0.12 in3.0 mm
07:14 AM 74.1°F23.4°C 73.8°F23.2°C 99% Calm Calm -- 29.85 in1010.8 mb 0.00 in0.0 mm 0.00 in0.0 mm 0.12 in3.0 mm
07:20 AM 74.1°F23.4°C 73.8°F23.2°C 99% Calm Calm -- 29.85 in1010.8 mb 0.00 in0.0 mm 0.00 in0.0 mm 0.12 in3.0 mm
07:24 AM 74.1°F23.4°C 73.8°F23.2°C 99% Calm Calm -- 29.86 in1011.2 mb 0.00 in0.0 mm 0.00 in0.0 mm 0.12 in3.0 mm
07:29 AM 74.3°F23.5°C 74.0°F23.3°C 99% Calm Calm -- 29.86 in1011.2 mb 0.00 in0.0 mm 0.00 in0.0 mm 0.12 in3.0 mm
07:35 AM 74.3°F23.5°C 74.0°F23.3°C 99% Calm Calm -- 29.86 in1011.2 mb 0.00 in0.0 mm 0.00 in0.0 mm 0.12 in3.0 mm
07:39 AM 74.5°F23.6°C 74.0°F23.3°C 99% Calm Calm -- 29.86 in1011.2 mb 0.00 in0.0 mm 0.00 in0.0 mm 0.12 in3.0 mm
07:46 AM 74.5°F23.6°C 74.2°F23.4°C 99% Calm Calm -- 29.86 in1011.2 mb 0.00 in0.0 mm 0.00 in0.0 mm 0.12 in3.0 mm
07:50 AM 74.5°F23.6°C 74.2°F23.4°C 99% Calm Calm -- 29.86 in1011.2 mb 0.00 in0.0 mm 0.00 in0.0 mm 0.12 in3.0 mm
07:54 AM 74.7°F23.7°C 74.4°F23.6°C 99% Calm Calm -- 29.87 in1011.5 mb 0.00 in0.0 mm 0.00 in0.0 mm 0.12 in3.0 mm
08:01 AM 74.8°F23.8°C 74.5°F23.6°C 99% Calm Calm -- 29.87 in1011.5 mb 0.00 in0.0 mm 0.00 in0.0 mm 0.12 in3.0 mm
08:05 AM 74.8°F23.8°C 74.5°F23.6°C 99% Calm Calm -- 29.87 in1011.5 mb 0.00 in0.0 mm 0.00 in0.0 mm 0.12 in3.0 mm
08:09 AM 74.8°F23.8°C 74.5°F23.6°C 99% Calm Calm -- 29.87 in1011.5 mb 0.00 in0.0 mm 0.00 in0.0 mm 0.12 in3.0 mm
08:16 AM 75.0°F23.9°C 74.7°F23.7°C 99% Calm Calm -- 29.87 in1011.5 mb 0.00 in0.0 mm 0.00 in0.0 mm 0.12 in3.0 mm
08:20 AM 75.0°F23.9°C 74.7°F23.7°C 99% Calm Calm -- 29.87 in1011.5 mb 0.00 in0.0 mm 0.00 in0.0 mm 0.12 in3.0 mm
08:26 AM 75.0°F23.9°C 74.7°F23.7°C 99% Calm Calm -- 29.87 in1011.5 mb 0.00 in0.0 mm 0.00 in0.0 mm 0.12 in3.0 mm
08:31 AM 75.0°F23.9°C 74.7°F23.7°C 99% Calm Calm -- 29.87 in1011.5 mb 0.00 in0.0 mm 0.00 in0.0 mm 0.12 in3.0 mm
08:35 AM 75.0°F23.9°C 74.4°F23.6°C 98% Calm Calm -- 29.87 in1011.5 mb 0.00 in0.0 mm 0.00 in0.0 mm 0.12 in3.0 mm
08:41 AM 75.2°F24.0°C 74.6°F23.7°C 98% Calm Calm 0.4 mph0.6 kmh 29.87 in1011.5 mb 0.00 in0.0 mm 0.00 in0.0 mm 0.12 in3.0 mm
08:46 AM 75.4°F24.1°C 74.8°F23.8°C 98% Calm Calm 0.4 mph0.6 kmh 29.87 in1011.5 mb 0.00 in0.0 mm 0.00 in0.0 mm 0.12 in3.0 mm
08:52 AM 75.4°F24.1°C 74.8°F23.8°C 98% Calm Calm -- 29.87 in1011.5 mb 0.00 in0.0 mm 0.00 in0.0 mm 0.12 in3.0 mm
08:56 AM 75.6°F24.2°C 74.9°F23.8°C 98% Calm Calm -- 29.87 in1011.5 mb 0.00 in0.0 mm 0.00 in0.0 mm 0.12 in3.0 mm
09:01 AM 75.7°F24.3°C 75.1°F23.9°C 98% Calm Calm -- 29.87 in1011.5 mb 0.00 in0.0 mm 0.00 in0.0 mm 0.12 in3.0 mm
09:07 AM 75.9°F24.4°C 75.3°F24.1°C 98% Calm Calm -- 29.88 in1011.9 mb 0.00 in0.0 mm 0.00 in0.0 mm 0.12 in3.0 mm
09:14 AM 76.6°F24.8°C 76.0°F24.4°C 98% Calm Calm -- 29.88 in1011.9 mb 0.00 in0.0 mm 0.00 in0.0 mm 0.12 in3.0 mm
09:18 AM 76.8°F24.9°C 75.9°F24.4°C 97% Calm Calm 0.4 mph0.6 kmh 29.88 in1011.9 mb 0.00 in0.0 mm 0.00 in0.0 mm 0.12 in3.0 mm
09:24 AM 77.0°F25.0°C 75.8°F24.3°C 96% Calm Calm 0.4 mph0.6 kmh 29.88 in1011.9 mb 0.00 in0.0 mm 0.00 in0.0 mm 0.12 in3.0 mm
09:28 AM 77.4°F25.2°C 76.1°F24.5°C 96% Calm Calm 0.2 mph0.3 kmh 29.88 in1011.9 mb 0.00 in0.0 mm 0.00 in0.0 mm 0.12 in3.0 mm
09:35 AM 77.5°F25.3°C 76.3°F24.6°C 96% Calm Calm -- 29.88 in1011.9 mb 0.00 in0.0 mm 0.00 in0.0 mm 0.12 in3.0 mm
09:39 AM 77.9°F25.5°C 76.4°F24.7°C 95% Calm Calm -- 29.88 in1011.9 mb 0.00 in0.0 mm 0.00 in0.0 mm 0.12 in3.0 mm
09:44 AM 78.4°F25.8°C 76.6°F24.8°C 94% Calm Calm -- 29.87 in1011.5 mb 0.00 in0.0 mm 0.00 in0.0 mm 0.12 in3.0 mm
09:50 AM 79.0°F26.1°C 77.1°F25.1°C 94% Calm Calm 0.4 mph0.6 kmh 29.87 in1011.5 mb 0.00 in0.0 mm 0.00 in0.0 mm 0.12 in3.0 mm
09:54 AM 79.2°F26.2°C 77.3°F25.2°C 94% Calm Calm 0.4 mph0.6 kmh 29.88 in1011.9 mb 0.00 in0.0 mm 0.00 in0.0 mm 0.12 in3.0 mm
10:01 AM 79.3°F26.3°C 76.8°F24.9°C 92% Calm Calm 0.4 mph0.6 kmh 29.88 in1011.9 mb 0.00 in0.0 mm 0.00 in0.0 mm 0.12 in3.0 mm
10:05 AM 79.3°F26.3°C 76.8°F24.9°C 92% Calm Calm 0.2 mph0.3 kmh 29.87 in1011.5 mb 0.00 in0.0 mm 0.00 in0.0 mm 0.12 in3.0 mm
10:11 AM 79.3°F26.3°C 76.5°F24.7°C 91% Calm Calm 0.9 mph1.4 kmh 29.88 in1011.9 mb 0.00 in0.0 mm 0.00 in0.0 mm 0.12 in3.0 mm
10:16 AM 79.3°F26.3°C 76.8°F24.9°C 92% Calm Calm 0.9 mph1.4 kmh 29.87 in1011.5 mb 0.00 in0.0 mm 0.00 in0.0 mm 0.12 in3.0 mm
10:20 AM 79.5°F26.4°C 76.7°F24.8°C 91% Calm Calm -- 29.87 in1011.5 mb 0.00 in0.0 mm 0.00 in0.0 mm 0.12 in3.0 mm
10:26 AM 79.7°F26.5°C 76.2°F24.6°C 89% Calm Calm 0.4 mph0.6 kmh 29.87 in1011.5 mb 0.00 in0.0 mm 0.00 in0.0 mm 0.12 in3.0 mm
10:33 AM 80.2°F26.8°C 77.0°F25.0°C 90% 0.2 mph SE0.3 kmh SE 0.4 mph0.6 kmh 29.87 in1011.5 mb 0.00 in0.0 mm 0.00 in0.0 mm 0.12 in3.0 mm
10:37 AM 80.4°F26.9°C 77.2°F25.1°C 90% 0.4 mph SW0.6 kmh SW 0.4 mph0.6 kmh 29.86 in1011.2 mb 0.00 in0.0 mm 0.00 in0.0 mm 0.12 in3.0 mm
10:41 AM 80.8°F27.1°C 77.2°F25.1°C 89% Calm Calm 0.4 mph0.6 kmh 29.86 in1011.2 mb 0.00 in0.0 mm 0.00 in0.0 mm 0.12 in3.0 mm
10:48 AM 81.3°F27.4°C 77.4°F25.2°C 88% Calm Calm -- 29.86 in1011.2 mb 0.00 in0.0 mm 0.00 in0.0 mm 0.12 in3.0 mm
10:52 AM 81.7°F27.6°C 77.1°F25.1°C 86% 0.7 mph SW1.1 kmh SW 0.9 mph1.4 kmh 29.86 in1011.2 mb 0.00 in0.0 mm 0.00 in0.0 mm 0.12 in3.0 mm
10:58 AM 82.0°F27.8°C 77.4°F25.2°C 86% Calm Calm 0.9 mph1.4 kmh 29.86 in1011.2 mb 0.00 in0.0 mm 0.00 in0.0 mm 0.12 in3.0 mm
11:03 AM 82.2°F27.9°C 78.0°F25.6°C 87% Calm Calm 0.4 mph0.6 kmh 29.86 in1011.2 mb 0.00 in0.0 mm 0.00 in0.0 mm 0.12 in3.0 mm
11:07 AM 82.6°F28.1°C 78.0°F25.6°C 86% Calm Calm 0.7 mph1.1 kmh 29.86 in1011.2 mb 0.00 in0.0 mm 0.00 in0.0 mm 0.12 in3.0 mm
11:13 AM 82.8°F28.2°C 77.1°F25.1°C 83% Calm Calm 0.7 mph1.1 kmh 29.86 in1011.2 mb 0.00 in0.0 mm 0.00 in0.0 mm 0.12 in3.0 mm
11:18 AM 82.9°F28.3°C 77.3°F25.2°C 83% Calm Calm 0.2 mph0.3 kmh 29.86 in1011.2 mb 0.00 in0.0 mm 0.00 in0.0 mm 0.12 in3.0 mm
11:24 AM 83.5°F28.6°C 77.4°F25.2°C 82% 0.9 mph SW1.4 kmh SW 0.9 mph1.4 kmh 29.86 in1011.2 mb 0.00 in0.0 mm 0.00 in0.0 mm 0.12 in3.0 mm
11:28 AM 83.5°F28.6°C 77.4°F25.2°C 82% Calm Calm 0.9 mph1.4 kmh 29.85 in1010.8 mb 0.00 in0.0 mm 0.00 in0.0 mm 0.12 in3.0 mm
11:33 AM 83.8°F28.8°C 77.7°F25.4°C 82% Calm Calm 0.9 mph1.4 kmh 29.86 in1011.2 mb 0.00 in0.0 mm 0.00 in0.0 mm 0.12 in3.0 mm
11:39 AM 84.0°F28.9°C 77.5°F25.3°C 81% Calm Calm 0.4 mph0.6 kmh 29.85 in1010.8 mb 0.00 in0.0 mm 0.00 in0.0 mm 0.12 in3.0 mm
11:43 AM 84.0°F28.9°C 77.5°F25.3°C 81% Calm Calm -- 29.85 in1010.8 mb 0.00 in0.0 mm 0.00 in0.0 mm 0.12 in3.0 mm
11:48 AM 84.0°F28.9°C 77.2°F25.1°C 80% 0.7 mph SSW1.1 kmh SSW 0.7 mph1.1 kmh 29.85 in1010.8 mb 0.00 in0.0 mm 0.00 in0.0 mm 0.12 in3.0 mm
11:54 AM 83.7°F28.7°C 76.9°F24.9°C 80% 0.9 mph SW1.4 kmh SW 0.9 mph1.4 kmh 29.85 in1010.8 mb 0.00 in0.0 mm 0.00 in0.0 mm 0.12 in3.0 mm
11:58 AM 83.5°F28.6°C 76.3°F24.6°C 79% Calm Calm 0.9 mph1.4 kmh 29.85 in1010.8 mb 0.00 in0.0 mm 0.00 in0.0 mm 0.12 in3.0 mm
12:03 PM 83.5°F28.6°C 75.9°F24.4°C 78% 0.2 mph ENE0.3 kmh ENE 0.9 mph1.4 kmh 29.85 in1010.8 mb 0.00 in0.0 mm 0.00 in0.0 mm 0.12 in3.0 mm
12:09 PM 83.8°F28.8°C 76.6°F24.8°C 79% 0.2 mph SSW0.3 kmh SSW 0.4 mph0.6 kmh 29.84 in1010.5 mb 0.00 in0.0 mm 0.00 in0.0 mm 0.12 in3.0 mm
12:13 PM 83.7°F28.7°C 76.5°F24.7°C 79% 0.2 mph SW0.3 kmh SW 1.1 mph1.8 kmh 29.85 in1010.8 mb 0.00 in0.0 mm 0.00 in0.0 mm 0.12 in3.0 mm
12:18 PM 83.8°F28.8°C 76.6°F24.8°C 79% 0.7 mph SSE1.1 kmh SSE 1.1 mph1.8 kmh 29.84 in1010.5 mb 0.00 in0.0 mm 0.00 in0.0 mm 0.12 in3.0 mm
12:24 PM 84.0°F28.9°C 76.8°F24.9°C 79% 0.7 mph SE1.1 kmh SE 0.7 mph1.1 kmh 29.84 in1010.5 mb 0.00 in0.0 mm 0.00 in0.0 mm 0.12 in3.0 mm
12:28 PM 84.6°F29.2°C 77.3°F25.2°C 79% 0.2 mph S0.3 kmh S 0.7 mph1.1 kmh 29.83 in1010.2 mb 0.00 in0.0 mm 0.00 in0.0 mm 0.12 in3.0 mm
12:35 PM 84.9°F29.4°C 77.3°F25.2°C 78% Calm Calm 0.2 mph0.3 kmh 29.83 in1010.2 mb 0.00 in0.0 mm 0.00 in0.0 mm 0.12 in3.0 mm
12:39 PM 85.1°F29.5°C 77.1°F25.1°C 77% 0.7 mph E1.1 kmh E 0.7 mph1.1 kmh 29.83 in1010.2 mb 0.00 in0.0 mm 0.00 in0.0 mm 0.12 in3.0 mm
12:43 PM 85.3°F29.6°C 76.5°F24.7°C 75% Calm Calm 0.7 mph1.1 kmh 29.82 in1009.8 mb 0.00 in0.0 mm 0.00 in0.0 mm 0.12 in3.0 mm
12:50 PM 85.1°F29.5°C 76.7°F24.8°C 76% Calm Calm 0.7 mph1.1 kmh 29.82 in1009.8 mb 0.00 in0.0 mm 0.00 in0.0 mm 0.12 in3.0 mm
12:54 PM 85.1°F29.5°C 76.7°F24.8°C 76% Calm Calm 0.4 mph0.6 kmh 29.82 in1009.8 mb 0.00 in0.0 mm 0.00 in0.0 mm 0.12 in3.0 mm
01:01 PM 85.6°F29.8°C 77.2°F25.1°C 76% Calm Calm 0.4 mph0.6 kmh 29.82 in1009.8 mb 0.00 in0.0 mm 0.00 in0.0 mm 0.12 in3.0 mm
01:05 PM 85.8°F29.9°C 77.0°F25.0°C 75% Calm Calm 0.9 mph1.4 kmh 29.81 in1009.5 mb 0.00 in0.0 mm 0.00 in0.0 mm 0.12 in3.0 mm
01:09 PM 86.2°F30.1°C 76.9°F24.9°C 74% Calm Calm 0.9 mph1.4 kmh 29.81 in1009.5 mb 0.00 in0.0 mm 0.00 in0.0 mm 0.12 in3.0 mm
01:16 PM 86.9°F30.5°C 78.0°F25.6°C 75% 0.2 mph SE0.3 kmh SE 0.2 mph0.3 kmh 29.81 in1009.5 mb 0.00 in0.0 mm 0.00 in0.0 mm 0.12 in3.0 mm
01:20 PM 87.1°F30.6°C 77.8°F25.4°C 74% Calm Calm 0.2 mph0.3 kmh 29.80 in1009.1 mb 0.00 in0.0 mm 0.00 in0.0 mm 0.12 in3.0 mm
01:24 PM 87.6°F30.9°C 77.5°F25.3°C 72% Calm Calm 0.2 mph0.3 kmh 29.80 in1009.1 mb 0.00 in0.0 mm 0.00 in0.0 mm 0.12 in3.0 mm
01:31 PM 87.6°F30.9°C 77.1°F25.1°C 71% 0.7 mph SW1.1 kmh SW 0.7 mph1.1 kmh 29.80 in1009.1 mb 0.00 in0.0 mm 0.00 in0.0 mm 0.12 in3.0 mm
01:35 PM 87.6°F30.9°C 77.5°F25.3°C 72% 0.4 mph NNE0.6 kmh NNE 0.7 mph1.1 kmh 29.79 in1008.8 mb 0.00 in0.0 mm 0.00 in0.0 mm 0.12 in3.0 mm
01:39 PM 87.4°F30.8°C 76.9°F24.9°C 71% Calm Calm 0.7 mph1.1 kmh 29.79 in1008.8 mb 0.00 in0.0 mm 0.00 in0.0 mm 0.12 in3.0 mm
01:46 PM 87.6°F30.9°C 77.5°F25.3°C 72% 0.9 mph SSW1.4 kmh SSW 0.9 mph1.4 kmh 29.79 in1008.8 mb 0.00 in0.0 mm 0.00 in0.0 mm 0.12 in3.0 mm
01:50 PM 87.6°F30.9°C 77.1°F25.1°C 71% Calm Calm 0.9 mph1.4 kmh 29.79 in1008.8 mb 0.00 in0.0 mm 0.00 in0.0 mm 0.12 in3.0 mm
01:54 PM 87.6°F30.9°C 76.7°F24.8°C 70% Calm Calm 0.9 mph1.4 kmh 29.78 in1008.5 mb 0.00 in0.0 mm 0.00 in0.0 mm 0.12 in3.0 mm
02:01 PM 88.0°F31.1°C 77.0°F25.0°C 70% 0.9 mph ESE1.4 kmh ESE 0.9 mph1.4 kmh 29.78 in1008.5 mb 0.00 in0.0 mm 0.00 in0.0 mm 0.12 in3.0 mm
02:05 PM 88.2°F31.2°C 77.6°F25.3°C 71% 0.2 mph WSW0.3 kmh WSW 0.9 mph1.4 kmh 29.78 in1008.5 mb 0.00 in0.0 mm 0.00 in0.0 mm 0.12 in3.0 mm
02:11 PM 88.2°F31.2°C 77.2°F25.1°C 70% 0.7 mph SSW1.1 kmh SSW 0.9 mph1.4 kmh 29.77 in1008.1 mb 0.00 in0.0 mm 0.00 in0.0 mm 0.12 in3.0 mm
02:15 PM 88.2°F31.2°C 76.3°F24.6°C 68% 0.7 mph SW1.1 kmh SW 0.9 mph1.4 kmh 29.77 in1008.1 mb 0.00 in0.0 mm 0.00 in0.0 mm 0.12 in3.0 mm
02:20 PM 88.3°F31.3°C 77.4°F25.2°C 70% 0.9 mph SE1.4 kmh SE 1.3 mph2.1 kmh 29.77 in1008.1 mb 0.00 in0.0 mm 0.00 in0.0 mm 0.12 in3.0 mm
02:26 PM 88.2°F31.2°C 77.2°F25.1°C 70% Calm Calm 1.3 mph2.1 kmh 29.77 in1008.1 mb 0.00 in0.0 mm 0.00 in0.0 mm 0.12 in3.0 mm
02:30 PM 88.3°F31.3°C 77.8°F25.4°C 71% Calm Calm 0.9 mph1.4 kmh 29.77 in1008.1 mb 0.00 in0.0 mm 0.00 in0.0 mm 0.12 in3.0 mm
02:35 PM 88.5°F31.4°C 77.9°F25.5°C 71% 1.6 mph SW2.6 kmh SW 1.6 mph2.6 kmh 29.76 in1007.8 mb 0.00 in0.0 mm 0.00 in0.0 mm 0.12 in3.0 mm
02:41 PM 88.3°F31.3°C 77.4°F25.2°C 70% 0.4 mph ESE0.6 kmh ESE 1.6 mph2.6 kmh 29.76 in1007.8 mb 0.00 in0.0 mm 0.00 in0.0 mm 0.12 in3.0 mm
02:45 PM 88.2°F31.2°C 77.2°F25.1°C 70% 0.4 mph SSE0.6 kmh SSE 0.4 mph0.6 kmh 29.76 in1007.8 mb 0.00 in0.0 mm 0.00 in0.0 mm 0.12 in3.0 mm
02:50 PM 88.0°F31.1°C 77.4°F25.2°C 71% 0.9 mph SSW1.4 kmh SSW 0.9 mph1.4 kmh 29.75 in1007.5 mb 0.00 in0.0 mm 0.00 in0.0 mm 0.12 in3.0 mm
02:56 PM 88.0°F31.1°C 76.5°F24.7°C 69% 0.9 mph S1.4 kmh S 1.3 mph2.1 kmh 29.75 in1007.5 mb 0.00 in0.0 mm 0.00 in0.0 mm 0.12 in3.0 mm
03:00 PM 88.0°F31.1°C 77.0°F25.0°C 70% 0.9 mph S1.4 kmh S 1.3 mph2.1 kmh 29.75 in1007.5 mb 0.00 in0.0 mm 0.00 in0.0 mm 0.12 in3.0 mm
03:05 PM 88.0°F31.1°C 77.0°F25.0°C 70% 0.2 mph 0.3 kmh 0.9 mph1.4 kmh 29.75 in1007.5 mb 0.00 in0.0 mm 0.00 in0.0 mm 0.12 in3.0 mm
03:11 PM 87.8°F31.0°C 76.4°F24.7°C 69% 1.3 mph W2.1 kmh W 2.0 mph3.2 kmh 29.75 in1007.5 mb 0.00 in0.0 mm 0.00 in0.0 mm 0.12 in3.0 mm
03:16 PM 87.8°F31.0°C 76.8°F24.9°C 70% 0.7 mph SE1.1 kmh SE 2.0 mph3.2 kmh 29.75 in1007.5 mb 0.00 in0.0 mm 0.00 in0.0 mm 0.12 in3.0 mm
03:22 PM 87.1°F30.6°C 77.8°F25.4°C 74% 1.3 mph SSW2.1 kmh SSW 1.8 mph2.9 kmh 29.75 in1007.5 mb 0.00 in0.0 mm 0.00 in0.0 mm 0.12 in3.0 mm
03:26 PM 85.8°F29.9°C 77.0°F25.0°C 75% 2.7 mph WSW4.3 kmh WSW 2.7 mph4.3 kmh 29.74 in1007.1 mb 0.00 in0.0 mm 0.00 in0.0 mm 0.12 in3.0 mm
03:30 PM 85.1°F29.5°C 77.9°F25.5°C 79% 1.1 mph WNW1.8 kmh WNW 2.7 mph4.3 kmh 29.75 in1007.5 mb 0.00 in0.0 mm 0.00 in0.0 mm 0.12 in3.0 mm
03:37 PM 84.0°F28.9°C 77.9°F25.5°C 82% 0.4 mph S0.6 kmh S 2.7 mph4.3 kmh 29.75 in1007.5 mb 0.00 in0.0 mm 0.00 in0.0 mm 0.12 in3.0 mm
03:41 PM 83.7°F28.7°C 78.1°F25.6°C 83% Calm Calm 2.0 mph3.2 kmh 29.75 in1007.5 mb 0.00 in0.0 mm 0.00 in0.0 mm 0.12 in3.0 mm
03:45 PM 83.1°F28.4°C 77.4°F25.2°C 83% 3.4 mph WSW5.5 kmh WSW 3.4 mph5.5 kmh 29.75 in1007.5 mb 0.00 in0.0 mm 0.00 in0.0 mm 0.12 in3.0 mm
03:52 PM 82.6°F28.1°C 76.9°F24.9°C 83% 2.9 mph S4.7 kmh S 3.4 mph5.5 kmh 29.75 in1007.5 mb 0.00 in0.0 mm 0.00 in0.0 mm 0.12 in3.0 mm
03:56 PM 82.6°F28.1°C 76.9°F24.9°C 83% Calm Calm 3.1 mph5.0 kmh 29.75 in1007.5 mb 0.00 in0.0 mm 0.00 in0.0 mm 0.12 in3.0 mm
04:00 PM 82.6°F28.1°C 77.3°F25.2°C 84% 2.0 mph SW3.2 kmh SW 2.9 mph4.7 kmh 29.75 in1007.5 mb 0.00 in0.0 mm 0.00 in0.0 mm 0.12 in3.0 mm
04:07 PM 82.2°F27.9°C 76.9°F24.9°C 84% Calm Calm 2.7 mph4.3 kmh 29.75 in1007.5 mb 0.00 in0.0 mm 0.00 in0.0 mm 0.12 in3.0 mm
04:11 PM 82.4°F28.0°C 77.5°F25.3°C 85% Calm Calm 2.7 mph4.3 kmh 29.75 in1007.5 mb 0.00 in0.0 mm 0.00 in0.0 mm 0.12 in3.0 mm
04:15 PM 82.2°F27.9°C 77.6°F25.3°C 86% 1.1 mph W1.8 kmh W 1.1 mph1.8 kmh 29.75 in1007.5 mb 0.00 in0.0 mm 0.00 in0.0 mm 0.12 in3.0 mm
04:22 PM 82.0°F27.8°C 77.4°F25.2°C 86% 2.0 mph SSW3.2 kmh SSW 2.0 mph3.2 kmh 29.75 in1007.5 mb 0.00 in0.0 mm 0.00 in0.0 mm 0.12 in3.0 mm
04:26 PM 81.7°F27.6°C 77.1°F25.1°C 86% Calm Calm 2.0 mph3.2 kmh 29.75 in1007.5 mb 0.00 in0.0 mm 0.00 in0.0 mm 0.12 in3.0 mm
04:33 PM 81.7°F27.6°C 77.1°F25.1°C 86% Calm Calm 2.0 mph3.2 kmh 29.75 in1007.5 mb 0.00 in0.0 mm 0.00 in0.0 mm 0.12 in3.0 mm
04:37 PM 81.7°F27.6°C 77.1°F25.1°C 85% Calm Calm 1.1 mph1.8 kmh 29.75 in1007.5 mb 0.00 in0.0 mm 0.00 in0.0 mm 0.12 in3.0 mm
04:41 PM 81.5°F27.5°C 76.9°F24.9°C 86% 2.2 mph SSW3.5 kmh SSW 2.2 mph3.5 kmh 29.75 in1007.5 mb 0.00 in0.0 mm 0.00 in0.0 mm 0.12 in3.0 mm
04:48 PM 81.3°F27.4°C 76.7°F24.8°C 86% Calm Calm 2.2 mph3.5 kmh 29.75 in1007.5 mb 0.00 in0.0 mm 0.00 in0.0 mm 0.12 in3.0 mm
04:52 PM 81.1°F27.3°C 76.5°F24.7°C 86% 0.7 mph WSW1.1 kmh WSW 0.7 mph1.1 kmh 29.75 in1007.5 mb 0.00 in0.0 mm 0.00 in0.0 mm 0.12 in3.0 mm
05:00 PM 81.1°F27.3°C 76.2°F24.6°C 85% 1.8 mph WSW2.9 kmh WSW 1.8 mph2.9 kmh 29.74 in1007.1 mb 0.00 in0.0 mm 0.00 in0.0 mm 0.12 in3.0 mm
05:05 PM 80.8°F27.1°C 75.8°F24.3°C 85% Calm Calm 1.8 mph2.9 kmh 29.74 in1007.1 mb 0.00 in0.0 mm 0.00 in0.0 mm 0.12 in3.0 mm
05:09 PM 80.4°F26.9°C 75.7°F24.3°C 85% Calm Calm 1.8 mph2.9 kmh 29.74 in1007.1 mb 0.00 in0.0 mm 0.00 in0.0 mm 0.12 in3.0 mm
05:15 PM 80.4°F26.9°C 75.8°F24.3°C 86% Calm Calm 0.4 mph0.6 kmh 29.75 in1007.5 mb 0.00 in0.0 mm 0.00 in0.0 mm 0.12 in3.0 mm
05:20 PM 80.4°F26.9°C 75.8°F24.3°C 86% 0.7 mph S1.1 kmh S 0.7 mph1.1 kmh 29.74 in1007.1 mb 0.00 in0.0 mm 0.00 in0.0 mm 0.12 in3.0 mm
05:26 PM 80.4°F26.9°C 75.5°F24.2°C 85% 0.9 mph WSW1.4 kmh WSW 0.9 mph1.4 kmh 29.74 in1007.1 mb 0.00 in0.0 mm 0.00 in0.0 mm 0.12 in3.0 mm
05:33 PM 80.2°F26.8°C 74.9°F23.8°C 84% Calm Calm 0.9 mph1.4 kmh 29.75 in1007.5 mb 0.00 in0.0 mm 0.00 in0.0 mm 0.12 in3.0 mm
05:37 PM 80.2°F26.8°C 74.9°F23.8°C 84% Calm Calm -- 29.75 in1007.5 mb 0.00 in0.0 mm 0.00 in0.0 mm 0.12 in3.0 mm
05:43 PM 80.2°F26.8°C 74.9°F23.8°C 84% Calm Calm -- 29.75 in1007.5 mb 0.00 in0.0 mm 0.00 in0.0 mm 0.12 in3.0 mm
05:48 PM 80.2°F26.8°C 74.9°F23.8°C 84% Calm Calm -- 29.75 in1007.5 mb 0.00 in0.0 mm 0.00 in0.0 mm 0.12 in3.0 mm
05:54 PM 80.2°F26.8°C 74.9°F23.8°C 84% Calm Calm -- 29.75 in1007.5 mb 0.00 in0.0 mm 0.00 in0.0 mm 0.12 in3.0 mm
05:58 PM 80.2°F26.8°C 74.9°F23.8°C 84% Calm Calm -- 29.75 in1007.5 mb 0.00 in0.0 mm 0.00 in0.0 mm 0.12 in3.0 mm
06:03 PM 80.2°F26.8°C 74.9°F23.8°C 84% Calm Calm -- 29.76 in1007.8 mb 0.00 in0.0 mm 0.00 in0.0 mm 0.12 in3.0 mm
06:09 PM 80.2°F26.8°C 74.6°F23.7°C 83% Calm Calm 0.4 mph0.6 kmh 29.76 in1007.8 mb 0.00 in0.0 mm 0.00 in0.0 mm 0.12 in3.0 mm
06:13 PM 80.2°F26.8°C 74.6°F23.7°C 83% Calm Calm 0.4 mph0.6 kmh 29.75 in1007.5 mb 0.00 in0.0 mm 0.00 in0.0 mm 0.12 in3.0 mm
06:20 PM 80.2°F26.8°C 74.6°F23.7°C 83% Calm Calm -- 29.76 in1007.8 mb 0.00 in0.0 mm 0.00 in0.0 mm 0.12 in3.0 mm
06:24 PM 80.2°F26.8°C 74.6°F23.7°C 83% Calm Calm -- 29.76 in1007.8 mb 0.00 in0.0 mm 0.00 in0.0 mm 0.12 in3.0 mm
06:28 PM 80.2°F26.8°C 74.9°F23.8°C 84% Calm Calm -- 29.76 in1007.8 mb 0.00 in0.0 mm 0.00 in0.0 mm 0.12 in3.0 mm
06:35 PM 80.2°F26.8°C 74.9°F23.8°C 84% Calm Calm -- 29.76 in1007.8 mb 0.00 in0.0 mm 0.00 in0.0 mm 0.12 in3.0 mm
06:39 PM 80.2°F26.8°C 74.9°F23.8°C 84% Calm Calm -- 29.77 in1008.1 mb 0.00 in0.0 mm 0.00 in0.0 mm 0.12 in3.0 mm
06:43 PM 80.2°F26.8°C 74.9°F23.8°C 84% Calm Calm -- 29.77 in1008.1 mb 0.00 in0.0 mm 0.00 in0.0 mm 0.12 in3.0 mm
06:50 PM 80.2°F26.8°C 74.9°F23.8°C 84% Calm Calm -- 29.77 in1008.1 mb 0.00 in0.0 mm 0.00 in0.0 mm 0.12 in3.0 mm
06:54 PM 80.2°F26.8°C 75.3°F24.1°C 85% Calm Calm -- 29.77 in1008.1 mb 0.00 in0.0 mm 0.00 in0.0 mm 0.12 in3.0 mm
07:00 PM 80.1°F26.7°C 75.1°F23.9°C 85% Calm Calm -- 29.77 in1008.1 mb 0.00 in0.0 mm 0.00 in0.0 mm 0.12 in3.0 mm
07:05 PM 80.2°F26.8°C 75.3°F24.1°C 85% Calm Calm -- 29.77 in1008.1 mb 0.00 in0.0 mm 0.00 in0.0 mm 0.12 in3.0 mm
07:09 PM 80.1°F26.7°C 75.1°F23.9°C 85% Calm Calm -- 29.77 in1008.1 mb 0.00 in0.0 mm 0.00 in0.0 mm 0.12 in3.0 mm
07:15 PM 79.9°F26.6°C 75.0°F23.9°C 85% Calm Calm -- 29.77 in1008.1 mb 0.00 in0.0 mm 0.00 in0.0 mm 0.12 in3.0 mm
07:20 PM 79.9°F26.6°C 75.3°F24.1°C 86% Calm Calm -- 29.77 in1008.1 mb 0.00 in0.0 mm 0.00 in0.0 mm 0.12 in3.0 mm
07:26 PM 79.7°F26.5°C 75.1°F23.9°C 86% Calm Calm -- 29.77 in1008.1 mb 0.00 in0.0 mm 0.00 in0.0 mm 0.12 in3.0 mm
07:30 PM 79.7°F26.5°C 75.1°F23.9°C 86% Calm Calm -- 29.77 in1008.1 mb 0.00 in0.0 mm 0.00 in0.0 mm 0.12 in3.0 mm
07:35 PM 79.5°F26.4°C 75.0°F23.9°C 86% Calm Calm -- 29.78 in1008.5 mb 0.00 in0.0 mm 0.00 in0.0 mm 0.12 in3.0 mm
07:41 PM 79.5°F26.4°C 75.3°F24.1°C 87% Calm Calm -- 29.78 in1008.5 mb 0.00 in0.0 mm 0.00 in0.0 mm 0.12 in3.0 mm
07:45 PM 79.5°F26.4°C 75.3°F24.1°C 87% Calm Calm -- 29.78 in1008.5 mb 0.00 in0.0 mm 0.00 in0.0 mm 0.12 in3.0 mm
07:50 PM 79.5°F26.4°C 75.3°F24.1°C 87% Calm Calm -- 29.79 in1008.8 mb 0.00 in0.0 mm 0.00 in0.0 mm 0.12 in3.0 mm
07:56 PM 79.3°F26.3°C 75.5°F24.2°C 88% Calm Calm -- 29.79 in1008.8 mb 0.00 in0.0 mm 0.00 in0.0 mm 0.12 in3.0 mm
08:00 PM 79.3°F26.3°C 75.5°F24.2°C 88% Calm Calm -- 29.79 in1008.8 mb 0.00 in0.0 mm 0.00 in0.0 mm 0.12 in3.0 mm
08:05 PM 79.3°F26.3°C 75.5°F24.2°C 88% Calm Calm -- 29.80 in1009.1 mb 0.00 in0.0 mm 0.00 in0.0 mm 0.12 in3.0 mm
08:11 PM 79.2°F26.2°C 75.3°F24.1°C 88% Calm Calm -- 29.80 in1009.1 mb 0.00 in0.0 mm 0.00 in0.0 mm 0.12 in3.0 mm
08:15 PM 79.2°F26.2°C 75.3°F24.1°C 88% Calm Calm -- 29.80 in1009.1 mb 0.00 in0.0 mm 0.00 in0.0 mm 0.12 in3.0 mm
08:22 PM 79.2°F26.2°C 75.3°F24.1°C 88% Calm Calm -- 29.80 in1009.1 mb 0.00 in0.0 mm 0.00 in0.0 mm 0.12 in3.0 mm
08:26 PM 79.0°F26.1°C 75.2°F24.0°C 88% Calm Calm -- 29.80 in1009.1 mb 0.00 in0.0 mm 0.00 in0.0 mm 0.12 in3.0 mm
08:32 PM 79.0°F26.1°C 75.2°F24.0°C 88% Calm Calm -- 29.80 in1009.1 mb 0.00 in0.0 mm 0.00 in0.0 mm 0.12 in3.0 mm
08:37 PM 79.0°F26.1°C 75.2°F24.0°C 88% Calm Calm -- 29.80 in1009.1 mb 0.00 in0.0 mm 0.00 in0.0 mm 0.12 in3.0 mm
08:41 PM 79.0°F26.1°C 75.2°F24.0°C 88% Calm Calm -- 29.81 in1009.5 mb 0.00 in0.0 mm 0.00 in0.0 mm 0.12 in3.0 mm
08:47 PM 79.0°F26.1°C 75.2°F24.0°C 88% Calm Calm -- 29.81 in1009.5 mb 0.00 in0.0 mm 0.00 in0.0 mm 0.12 in3.0 mm
08:52 PM 79.0°F26.1°C 75.2°F24.0°C 88% Calm Calm -- 29.81 in1009.5 mb 0.00 in0.0 mm 0.00 in0.0 mm 0.12 in3.0 mm
08:56 PM 79.0°F26.1°C 75.2°F24.0°C 88% Calm Calm -- 29.81 in1009.5 mb 0.00 in0.0 mm 0.00 in0.0 mm 0.12 in3.0 mm
09:02 PM 79.0°F26.1°C 75.2°F24.0°C 88% Calm Calm -- 29.82 in1009.8 mb 0.00 in0.0 mm 0.00 in0.0 mm 0.12 in3.0 mm
09:07 PM 79.0°F26.1°C 75.5°F24.2°C 89% Calm Calm -- 29.82 in1009.8 mb 0.00 in0.0 mm 0.00 in0.0 mm 0.12 in3.0 mm
09:11 PM 79.0°F26.1°C 75.5°F24.2°C 89% Calm Calm -- 29.82 in1009.8 mb 0.00 in0.0 mm 0.00 in0.0 mm 0.12 in3.0 mm
09:17 PM 79.0°F26.1°C 75.5°F24.2°C 89% Calm Calm -- 29.82 in1009.8 mb 0.00 in0.0 mm 0.00 in0.0 mm 0.12 in3.0 mm
09:22 PM 79.0°F26.1°C 75.5°F24.2°C 89% Calm Calm -- 29.82 in1009.8 mb 0.00 in0.0 mm 0.00 in0.0 mm 0.12 in3.0 mm
09:28 PM 79.0°F26.1°C 75.5°F24.2°C 89% Calm Calm -- 29.82 in1009.8 mb 0.00 in0.0 mm 0.00 in0.0 mm 0.12 in3.0 mm
09:32 PM 79.0°F26.1°C 75.5°F24.2°C 89% Calm Calm -- 29.83 in1010.2 mb 0.00 in0.0 mm 0.00 in0.0 mm 0.12 in3.0 mm
09:39 PM 79.0°F26.1°C 75.5°F24.2°C 89% Calm Calm -- 29.84 in1010.5 mb 0.00 in0.0 mm 0.00 in0.0 mm 0.12 in3.0 mm
09:43 PM 79.0°F26.1°C 75.9°F24.4°C 90% Calm Calm -- 29.84 in1010.5 mb 0.00 in0.0 mm 0.00 in0.0 mm 0.12 in3.0 mm
09:50 PM 79.2°F26.2°C 76.1°F24.5°C 90% Calm Calm -- 29.84 in1010.5 mb 0.00 in0.0 mm 0.00 in0.0 mm 0.12 in3.0 mm
09:54 PM 79.0°F26.1°C 75.9°F24.4°C 90% Calm Calm -- 29.84 in1010.5 mb 0.00 in0.0 mm 0.00 in0.0 mm 0.12 in3.0 mm
09:58 PM 79.0°F26.1°C 75.9°F24.4°C 90% Calm Calm -- 29.84 in1010.5 mb 0.00 in0.0 mm 0.00 in0.0 mm 0.12 in3.0 mm
10:05 PM 79.0°F26.1°C 75.9°F24.4°C 90% Calm Calm -- 29.84 in1010.5 mb 0.00 in0.0 mm 0.00 in0.0 mm 0.12 in3.0 mm
10:09 PM 79.0°F26.1°C 75.5°F24.2°C 89% Calm Calm -- 29.84 in1010.5 mb 0.00 in0.0 mm 0.00 in0.0 mm 0.12 in3.0 mm
10:13 PM 79.0°F26.1°C 75.5°F24.2°C 89% Calm Calm -- 29.84 in1010.5 mb 0.00 in0.0 mm 0.00 in0.0 mm 0.12 in3.0 mm
10:20 PM 79.0°F26.1°C 75.5°F24.2°C 89% Calm Calm -- 29.85 in1010.8 mb 0.00 in0.0 mm 0.00 in0.0 mm 0.12 in3.0 mm
10:24 PM 79.0°F26.1°C 75.5°F24.2°C 89% Calm Calm -- 29.85 in1010.8 mb 0.00 in0.0 mm 0.00 in0.0 mm 0.12 in3.0 mm
10:30 PM 79.0°F26.1°C 75.5°F24.2°C 89% Calm Calm -- 29.85 in1010.8 mb 0.00 in0.0 mm 0.00 in0.0 mm 0.12 in3.0 mm
10:35 PM 79.0°F26.1°C 75.5°F24.2°C 89% Calm Calm 0.4 mph0.6 kmh 29.85 in1010.8 mb 0.00 in0.0 mm 0.00 in0.0 mm 0.12 in3.0 mm
10:41 PM 79.0°F26.1°C 75.5°F24.2°C 89% Calm Calm 0.4 mph0.6 kmh 29.85 in1010.8 mb 0.00 in0.0 mm 0.00 in0.0 mm 0.12 in3.0 mm
10:45 PM 79.0°F26.1°C 75.5°F24.2°C 89% Calm Calm -- 29.85 in1010.8 mb 0.00 in0.0 mm 0.00 in0.0 mm 0.12 in3.0 mm
10:52 PM 78.6°F25.9°C 75.2°F24.0°C 89% Calm Calm -- 29.85 in1010.8 mb 0.00 in0.0 mm 0.00 in0.0 mm 0.12 in3.0 mm
10:58 PM 78.6°F25.9°C 75.2°F24.0°C 89% Calm Calm -- 29.85 in1010.8 mb 0.00 in0.0 mm 0.00 in0.0 mm 0.12 in3.0 mm
11:02 PM 78.6°F25.9°C 75.6°F24.2°C 90% Calm Calm -- 29.85 in1010.8 mb 0.00 in0.0 mm 0.00 in0.0 mm 0.12 in3.0 mm
11:07 PM 78.6°F25.9°C 75.6°F24.2°C 90% Calm Calm -- 29.85 in1010.8 mb 0.00 in0.0 mm 0.00 in0.0 mm 0.12 in3.0 mm
11:13 PM 78.6°F25.9°C 75.6°F24.2°C 90% Calm Calm -- 29.85 in1010.8 mb 0.00 in0.0 mm 0.00 in0.0 mm 0.12 in3.0 mm
11:17 PM 78.6°F25.9°C 75.6°F24.2°C 90% 0.4 mph NE0.6 kmh NE 0.4 mph0.6 kmh 29.85 in1010.8 mb 0.00 in0.0 mm 0.00 in0.0 mm 0.12 in3.0 mm
11:24 PM 78.4°F25.8°C 75.4°F24.1°C 90% Calm Calm 0.4 mph0.6 kmh 29.85 in1010.8 mb 0.00 in0.0 mm 0.00 in0.0 mm 0.12 in3.0 mm
11:28 PM 78.4°F25.8°C 75.4°F24.1°C 90% Calm Calm 0.4 mph0.6 kmh 29.85 in1010.8 mb 0.00 in0.0 mm 0.00 in0.0 mm 0.12 in3.0 mm
11:32 PM 78.4°F25.8°C 75.7°F24.3°C 91% Calm Calm -- 29.85 in1010.8 mb 0.00 in0.0 mm 0.00 in0.0 mm 0.12 in3.0 mm
11:39 PM 78.1°F25.6°C 75.5°F24.2°C 91% Calm Calm -- 29.85 in1010.8 mb 0.00 in0.0 mm 0.00 in0.0 mm 0.12 in3.0 mm
11:43 PM 78.1°F25.6°C 75.3°F24.1°C 91% Calm Calm -- 29.85 in1010.8 mb 0.00 in0.0 mm 0.00 in0.0 mm 0.12 in3.0 mm
11:49 PM 78.1°F25.6°C 75.3°F24.1°C 91% Calm Calm -- 29.84 in1010.5 mb 0.00 in0.0 mm 0.00 in0.0 mm 0.12 in3.0 mm
11:54 PM 77.9°F25.5°C 75.1°F23.9°C 91% Calm Calm -- 29.84 in1010.5 mb 0.00 in0.0 mm 0.00 in0.0 mm 0.12 in3.0 mm
11:58 PM 77.9°F25.5°C 75.5°F24.2°C 92% Calm Calm -- 29.84 in1010.5 mb 0.00 in0.0 mm 0.00 in0.0 mm 0.12 in3.0 mm